Time;durP1;ratioP1;P1;durP2;ratioP2;P2;SDS_P1;SDS_P2;PMS_P1;PMS_P2;Temp;Humidity;BMP_temperature;BMP_pressure;BME280_temperature;BME280_humidity;BME280_pressure;Samples;Min_cycle;Max_cycle;Signal;HPM_P1;HPM_P2
2020/12/05 00:00:45;;;;;;;54.20;22.73;;;;;;;3.79;79.34;99221.66;1757738;79;25808;-65
2020/12/05 00:03:13;;;;;;;50.15;21.35;;;;;;;3.77;79.38;99222.19;1748338;78;27785;-65
2020/12/05 00:05:47;;;;;;;46.40;21.97;;;;;;;3.79;79.40;99226.51;1762346;77;25891;-65
2020/12/05 00:08:15;;;;;;;49.23;21.87;;;;;;;3.79;79.39;99225.18;1759395;78;26029;-65
2020/12/05 00:10:43;;;;;;;52.23;23.00;;;;;;;3.82;79.48;99240.10;1770630;78;25744;-65
2020/12/05 00:13:13;;;;;;;52.58;22.75;;;;;;;3.83;79.53;99239.18;1762191;78;26697;-65
2020/12/05 00:15:41;;;;;;;49.05;20.80;;;;;;;3.85;79.54;99247.94;1761108;77;28556;-65
2020/12/05 00:18:09;;;;;;;43.28;19.98;;;;;;;3.87;79.49;99239.46;1766205;77;25868;-65
2020/12/05 00:20:39;;;;;;;52.08;21.30;;;;;;;3.88;79.51;99246.49;1773734;78;25884;-75
2020/12/05 00:23:07;;;;;;;42.00;20.95;;;;;;;3.87;79.53;99244.30;1766896;77;26038;-75
2020/12/05 00:25:35;;;;;;;48.58;20.52;;;;;;;3.88;79.56;99243.38;1759979;79;26370;-75
2020/12/05 00:28:03;;;;;;;46.05;21.27;;;;;;;3.87;79.57;99238.14;1770729;78;27922;-75
2020/12/05 00:30:31;;;;;;;44.05;20.90;;;;;;;3.88;79.57;99234.56;1780399;77;25729;-75
2020/12/05 00:33:00;;;;;;;47.98;20.35;;;;;;;3.88;79.62;99231.91;1779939;77;25837;-75
2020/12/05 00:35:29;;;;;;;48.70;21.05;;;;;;;3.89;79.64;99226.55;1780926;77;26075;-75
2020/12/05 00:37:57;;;;;;;43.63;19.57;;;;;;;3.90;79.66;99218.14;1770456;77;25883;-75
2020/12/05 00:40:25;;;;;;;49.25;21.57;;;;;;;3.90;79.66;99204.42;1770746;77;28004;-75
2020/12/05 00:42:52;;;;;;;45.80;21.10;;;;;;;3.92;79.67;99197.73;1791827;77;25821;-75
2020/12/05 00:45:20;;;;;;;48.35;21.33;;;;;;;3.89;79.70;99201.37;1765700;77;25787;-75
2020/12/05 00:47:48;;;;;;;48.05;20.65;;;;;;;3.90;79.68;99202.23;1791502;76;26311;-76
2020/12/05 00:50:16;;;;;;;45.10;19.73;;;;;;;3.91;79.74;99202.64;1773496;77;25896;-76
2020/12/05 00:52:43;;;;;;;45.88;20.88;;;;;;;3.95;79.76;99190.98;1782151;77;27762;-75
2020/12/05 00:55:11;;;;;;;44.88;19.42;;;;;;;4.00;79.80;99188.16;1777017;77;25824;-75
2020/12/05 00:57:39;;;;;;;43.23;20.92;;;;;;;4.05;79.83;99188.84;1799966;77;25848;-77
2020/12/05 01:00:07;;;;;;;54.25;20.92;;;;;;;4.07;79.84;99182.55;1799306;76;26095;-75
2020/12/05 01:02:36;;;;;;;47.08;20.75;;;;;;;4.12;79.90;99183.69;1802892;78;25917;-75
2020/12/05 01:05:04;;;;;;;44.65;18.52;;;;;;;4.18;79.90;99193.58;1800055;77;26483;-75
2020/12/05 01:07:32;;;;;;;42.83;18.98;;;;;;;4.24;79.86;99187.17;1801286;76;25838;-75
2020/12/05 01:10:00;;;;;;;37.53;18.95;;;;;;;4.28;79.88;99179.48;1815255;76;25889;-74
2020/12/05 01:12:27;;;;;;;40.67;19.40;;;;;;;4.35;79.90;99189.38;1811427;76;26308;-75
2020/12/05 01:15:00;;;;;;;43.65;20.97;;;;;;;4.41;79.90;99187.34;1814716;76;25794;-74
2020/12/05 01:17:25;;;;;;;38.05;18.65;;;;;;;4.45;79.88;99188.07;1816762;76;27807;-75
2020/12/05 01:19:56;;;;;;;37.63;18.37;;;;;;;4.46;79.83;99182.70;1813591;76;26133;-75
2020/12/05 01:22:23;;;;;;;43.68;19.32;;;;;;;4.51;79.82;99179.39;1836475;77;25711;-75
2020/12/05 01:24:51;;;;;;;44.77;19.82;;;;;;;4.51;79.80;99179.86;1838860;77;25737;-75
2020/12/05 01:27:19;;;;;;;37.67;18.62;;;;;;;4.53;79.81;99189.48;1792395;77;25667;-75
2020/12/05 01:29:47;;;;;;;36.83;17.30;;;;;;;4.52;79.83;99190.41;1838695;77;25916;-75
2020/12/05 01:32:15;;;;;;;35.05;16.15;;;;;;;4.53;79.82;99188.16;1838496;77;26318;-75
2020/12/05 01:34:43;;;;;;;37.80;17.02;;;;;;;4.56;79.78;99192.47;1838756;77;25583;-75
2020/12/05 01:37:11;;;;;;;40.03;18.30;;;;;;;4.56;79.70;99188.02;1838541;77;26095;-75
2020/12/05 01:39:38;;;;;;;39.48;19.37;;;;;;;4.54;79.70;99193.86;1838700;77;25991;-75
2020/12/05 01:42:06;;;;;;;44.80;20.80;;;;;;;4.56;79.74;99196.45;1838391;77;26714;-75
2020/12/05 01:44:34;;;;;;;40.75;19.30;;;;;;;4.56;79.74;99200.42;1838584;77;25684;-75
2020/12/05 01:47:02;;;;;;;45.92;19.80;;;;;;;4.55;79.69;99197.38;1838620;77;25961;-75
2020/12/05 01:49:31;;;;;;;37.90;17.95;;;;;;;4.54;79.70;99203.14;1838611;77;25671;-75
2020/12/05 01:52:01;;;;;;;37.95;16.75;;;;;;;4.52;79.66;99194.38;1839238;77;25935;-75
2020/12/05 01:54:29;;;;;;;40.88;18.70;;;;;;;4.52;79.66;99198.83;1839345;77;25834;-76
2020/12/05 01:57:01;;;;;;;44.30;19.87;;;;;;;4.50;79.63;99196.23;1816096;76;25686;-76
2020/12/05 01:59:30;;;;;;;50.30;23.45;;;;;;;4.48;79.64;99210.03;1768233;78;26601;-75
2020/12/05 02:02:04;;;;;;;45.12;19.92;;;;;;;4.50;79.67;99212.62;1789058;77;26060;-75
2020/12/05 02:04:49;;;;;;;45.80;20.25;;;;;;;4.49;79.63;99212.22;1822309;74;27066;-75
2020/12/05 02:07:25;;;;;;;36.33;17.23;;;;;;;4.46;79.62;99225.61;1810962;76;27462;-76
2020/12/05 02:09:55;;;;;;;38.38;18.27;;;;;;;4.43;79.57;99245.63;1820015;76;25843;-76
2020/12/05 02:12:28;;;;;;;43.73;17.70;;;;;;;4.41;79.59;99238.20;1784626;76;25475;-75
2020/12/05 02:15:10;;;;;;;38.08;18.05;;;;;;;4.41;79.60;99239.06;1831750;77;25686;-75
2020/12/05 02:17:52;;;;;;;38.08;18.23;;;;;;;4.38;79.59;99227.25;1814244;77;25771;-74
2020/12/05 02:20:22;;;;;;;39.75;18.65;;;;;;;4.37;79.62;99224.66;1804540;76;27913;-76
2020/12/05 02:22:52;;;;;;;41.33;17.92;;;;;;;4.38;79.62;99223.73;1814632;76;26278;-76
2020/12/05 02:25:20;;;;;;;31.77;15.68;;;;;;;4.39;79.64;99226.79;1817771;76;25764;-75
2020/12/05 02:27:51;;;;;;;41.18;18.62;;;;;;;4.41;79.62;99220.96;1817134;77;25952;-65
2020/12/05 02:30:18;;;;;;;39.20;18.52;;;;;;;4.42;79.62;99220.03;1819488;76;26421;-65
2020/12/05 02:32:46;;;;;;;44.63;18.82;;;;;;;4.42;79.63;99218.70;1820443;77;28317;-65
2020/12/05 02:35:14;;;;;;;36.23;17.82;;;;;;;4.42;79.59;99225.34;1811811;76;25951;-65
2020/12/05 02:37:46;;;;;;;41.33;17.73;;;;;;;4.40;79.59;99227.19;1806160;76;25704;-65
2020/12/05 02:40:14;;;;;;;37.38;17.05;;;;;;;4.40;79.59;99229.38;1817433;76;26466;-64
2020/12/05 02:42:43;;;;;;;40.98;17.20;;;;;;;4.40;79.62;99213.46;1817885;76;26526;-64
2020/12/05 02:45:12;;;;;;;40.75;17.30;;;;;;;4.41;79.60;99214.33;1793563;76;27918;-64
2020/12/05 02:47:39;;;;;;;38.90;19.02;;;;;;;4.41;79.62;99220.50;1821807;76;26430;-64
2020/12/05 02:50:09;;;;;;;36.65;17.57;;;;;;;4.42;79.59;99218.70;1828494;76;25993;-64
2020/12/05 02:52:36;;;;;;;37.13;17.77;;;;;;;4.40;79.60;99210.81;1809626;77;26057;-64
2020/12/05 02:55:04;;;;;;;36.35;15.95;;;;;;;4.41;79.60;99214.33;1813926;77;25809;-64
2020/12/05 02:57:32;;;;;;;37.28;17.37;;;;;;;4.42;79.62;99220.03;1811629;76;26648;-64
2020/12/05 03:00:03;;;;;;;33.80;16.20;;;;;;;4.45;79.63;99218.58;1834880;76;25777;-64
2020/12/05 03:02:31;;;;;;;;;;;;;;;4.47;79.65;99218.05;1824003;76;25815;-64
2020/12/05 03:04:58;;;;;;;35.08;16.82;;;;;;;4.50;79.64;99225.42;1820628;76;26350;-64
2020/12/05 03:07:27;;;;;;;33.05;15.85;;;;;;;4.52;79.67;99226.69;1816741;76;25789;-64
2020/12/05 03:09:56;;;;;;;32.73;16.57;;;;;;;4.51;79.60;99220.98;1812038;76;27825;-64
2020/12/05 03:12:24;;;;;;;34.10;16.17;;;;;;;4.50;79.60;99216.60;1818961;77;25736;-64
2020/12/05 03:14:51;;;;;;;32.38;16.00;;;;;;;4.50;79.60;99214.81;1819423;77;25709;-64
2020/12/05 03:17:19;;;;;;;38.90;17.12;;;;;;;4.52;79.60;99210.77;1817545;77;26028;-64
2020/12/05 03:19:47;;;;;;;36.13;14.65;;;;;;;4.52;79.56;99222.24;1817103;77;25748;-64
2020/12/05 03:22:17;;;;;;;35.68;16.40;;;;;;;4.55;79.60;99219.92;1816771;77;28295;-64
2020/12/05 03:24:45;;;;;;;35.50;17.17;;;;;;;4.54;79.58;99217.73;1817099;77;25712;-64
2020/12/05 03:27:12;;;;;;;37.35;17.48;;;;;;;4.54;79.59;99227.48;1817176;77;25818;-65
2020/12/05 03:29:41;;;;;;;35.60;17.65;;;;;;;4.53;79.60;99223.11;1816720;77;26626;-64
2020/12/05 03:32:13;;;;;;;32.85;15.93;;;;;;;4.53;79.59;99227.95;1816760;77;25818;-65
2020/12/05 03:34:41;;;;;;;36.10;16.45;;;;;;;4.54;79.62;99234.98;1816551;77;28138;-64
2020/12/05 03:37:15;;;;;;;37.75;16.02;;;;;;;4.55;79.59;99223.44;1816512;77;25760;-64
2020/12/05 03:39:43;;;;;;;38.40;16.65;;;;;;;4.56;79.58;99226.50;1816098;77;25732;-64
2020/12/05 03:42:10;;;;;;;32.30;16.32;;;;;;;4.57;79.57;99230.02;1817032;77;25770;-64
2020/12/05 03:44:39;;;;;;;39.55;17.95;;;;;;;4.55;79.57;99234.05;1817236;77;25683;-65
2020/12/05 03:47:07;;;;;;;32.17;15.50;;;;;;;4.53;79.56;99230.60;1817030;77;27708;-64
2020/12/05 03:49:36;;;;;;;36.33;16.27;;;;;;;4.53;79.57;99231.06;1817175;77;25743;-64
2020/12/05 03:52:05;;;;;;;38.13;15.30;;;;;;;4.53;79.57;99227.09;1817249;77;25957;-64
2020/12/05 03:54:33;;;;;;;35.90;16.62;;;;;;;4.55;79.59;99223.91;1816890;77;26444;-64
2020/12/05 03:57:01;;;;;;;37.95;17.80;;;;;;;4.55;79.57;99231.86;1811536;77;25821;-66
2020/12/05 03:59:29;;;;;;;36.88;16.73;;;;;;;4.54;79.58;99233.66;1823073;76;27535;-64
2020/12/05 04:01:56;;;;;;;35.45;16.17;;;;;;;4.55;79.57;99244.67;1842955;76;25812;-64
2020/12/05 04:04:24;;;;;;;33.95;16.27;;;;;;;4.53;79.53;99252.30;1809324;76;25849;-64
2020/12/05 04:06:52;;;;;;;35.68;16.12;;;;;;;4.50;79.57;99245.78;1817423;76;26631;-64
2020/12/05 04:09:21;;;;;;;37.28;16.30;;;;;;;4.49;79.57;99246.71;1814803;76;25875;-66
2020/12/05 04:11:49;;;;;;;29.37;15.05;;;;;;;4.48;79.56;99247.64;1806777;77;27754;-64
2020/12/05 04:14:16;;;;;;;37.93;15.98;;;;;;;4.50;79.60;99255.07;1803911;76;25922;-64
2020/12/05 04:16:47;;;;;;;32.55;15.20;;;;;;;4.52;79.59;99252.76;1822433;76;25914;-64
2020/12/05 04:19:15;;;;;;;34.75;17.80;;;;;;;4.52;79.61;99259.39;1810295;76;25876;-64
2020/12/05 04:21:43;;;;;;;34.27;16.10;;;;;;;4.54;79.64;99248.72;1819144;76;25836;-64
2020/12/05 04:24:10;;;;;;;35.05;16.23;;;;;;;4.55;79.58;99253.09;1809720;76;26873;-64
2020/12/05 04:26:38;;;;;;;33.80;15.55;;;;;;;4.52;79.63;99251.43;1810585;76;25780;-64
2020/12/05 04:29:06;;;;;;;38.30;15.75;;;;;;;4.52;79.62;99246.13;1802807;76;25736;-64
2020/12/05 04:31:34;;;;;;;34.60;15.45;;;;;;;4.53;79.62;99253.63;1804996;77;26710;-64
2020/12/05 04:34:02;;;;;;;31.25;14.53;;;;;;;4.55;79.64;99255.75;1803546;76;25824;-65
2020/12/05 04:36:30;;;;;;;33.70;16.82;;;;;;;4.55;79.64;99252.63;1813978;76;27354;-64
2020/12/05 04:38:59;;;;;;;37.73;17.37;;;;;;;4.57;79.68;99247.27;1798976;76;26366;-65
2020/12/05 04:41:26;;;;;;;28.67;14.98;;;;;;;4.56;79.69;99247.73;1822092;76;25756;-64
2020/12/05 04:43:54;;;;;;;37.05;16.93;;;;;;;4.58;79.67;99242.36;1816281;76;26690;-66
2020/12/05 04:46:23;;;;;;;30.10;14.18;;;;;;;4.60;79.66;99248.92;1807685;76;26022;-66
2020/12/05 04:48:53;;;;;;;36.15;15.98;;;;;;;4.60;79.66;99259.08;1810614;77;27728;-66
2020/12/05 04:51:26;;;;;;;35.43;16.42;;;;;;;4.63;79.69;99250.98;1794759;76;26066;-65
2020/12/05 04:53:54;;;;;;;32.85;16.20;;;;;;;4.64;79.70;99242.09;1802038;76;25824;-66
2020/12/05 04:56:25;;;;;;;38.83;15.43;;;;;;;4.64;79.68;99243.42;1811426;76;25896;-64
2020/12/05 04:58:55;;;;;;;;;;;;;;;4.63;79.69;99247.01;1809683;76;25773;-64
2020/12/05 05:01:25;;;;;;;36.90;16.42;;;;;;;4.63;79.67;99243.48;1813381;76;28342;-64
2020/12/05 05:03:54;;;;;;;38.25;16.17;;;;;;;4.62;79.71;99258.55;1810165;77;26573;-66
2020/12/05 05:06:22;;;;;;;26.23;13.65;;;;;;;4.62;79.69;99262.53;1807759;76;25823;-64
2020/12/05 05:08:50;;;;;;;35.45;14.78;;;;;;;4.62;79.68;99269.16;1802604;76;25780;-65
2020/12/05 05:11:18;;;;;;;33.67;16.12;;;;;;;4.65;79.74;99258.42;1807689;76;25940;-64
2020/12/05 05:13:59;;;;;;;34.48;16.15;;;;;;;4.66;79.73;99256.17;1813811;75;28098;-65
2020/12/05 05:16:28;;;;;;;37.30;18.05;;;;;;;4.69;79.72;99263.14;1815440;76;26746;-65
2020/12/05 05:19:21;;;;;;;34.67;16.23;;;;;;;4.65;79.70;99275.67;1809691;76;26701;-64
2020/12/05 05:21:50;;;;;;;34.08;15.88;;;;;;;4.66;79.69;99269.44;1791846;76;25791;-64
2020/12/05 05:24:21;;;;;;;32.58;15.05;;;;;;;4.63;79.69;99262.93;1793790;76;25868;-64
2020/12/05 05:27:06;;;;;;;34.33;16.52;;;;;;;4.65;79.70;99266.84;1797702;78;27851;-64
2020/12/05 05:29:40;;;;;;;32.05;15.60;;;;;;;4.65;79.71;99250.46;1790557;78;26354;-65
2020/12/05 05:32:15;;;;;;;34.67;16.30;;;;;;;4.66;79.70;99256.17;1797758;76;25833;-64
2020/12/05 05:34:40;;;;;;;39.67;17.55;;;;;;;4.68;79.77;99262.27;1792054;77;26680;-64
2020/12/05 05:37:17;;;;;;;35.38;16.55;;;;;;;4.72;79.79;99266.99;1806050;76;25971;-64
2020/12/05 05:39:49;;;;;;;32.42;16.12;;;;;;;4.72;79.81;99270.52;1795338;78;27364;-65
2020/12/05 05:42:29;;;;;;;30.62;15.60;;;;;;;4.74;79.79;99260.70;1766570;79;25756;-64
2020/12/05 05:45:20;;;;;;;35.43;15.55;;;;;;;4.77;79.82;99260.56;1767033;79;25737;-64
2020/12/05 05:47:52;;;;;;;33.23;16.15;;;;;;;4.80;79.81;99269.73;1803016;78;26211;-64
2020/12/05 05:50:22;;;;;;;37.50;16.82;;;;;;;4.84;79.80;99265.16;1802419;78;25762;-64
2020/12/05 05:53:03;;;;;;;35.77;17.53;;;;;;;4.85;79.83;99259.78;1760306;80;27340;-63
2020/12/05 05:55:44;;;;;;;30.10;15.70;;;;;;;4.88;79.87;99257.46;1796071;77;25704;-64
2020/12/05 05:58:11;;;;;;;32.25;15.90;;;;;;;4.88;79.85;99253.02;1803149;76;25712;-64
2020/12/05 06:00:43;;;;;;;32.17;14.85;;;;;;;4.89;79.83;99243.26;1812509;76;25872;-67
2020/12/05 06:03:19;;;;;;;;;;;;;;;4.92;79.80;99251.55;1814537;76;26489;-64
2020/12/05 06:05:51;;;;;;;35.43;17.77;;;;;;;4.93;79.83;99260.78;1800883;78;27766;-64
2020/12/05 06:08:26;;;;;;;38.67;17.62;;;;;;;4.93;79.85;99258.12;1801578;76;25879;-64
2020/12/05 06:11:01;;;;;;;37.73;17.48;;;;;;;4.95;79.87;99265.56;1809445;76;26446;-64
2020/12/05 06:13:32;;;;;;;36.77;18.02;;;;;;;4.96;79.85;99259.33;1799695;76;26019;-64
2020/12/05 06:16:02;;;;;;;34.98;17.80;;;;;;;4.97;79.86;99268.16;1806166;76;25920;-64
2020/12/05 06:18:31;;;;;;;33.08;16.40;;;;;;;4.99;79.90;99273.80;1806726;76;27924;-64
2020/12/05 06:20:59;;;;;;;40.33;19.40;;;;;;;5.03;79.89;99275.40;1806204;77;26112;-65
2020/12/05 06:23:40;;;;;;;37.48;18.35;;;;;;;5.06;79.86;99273.08;1805383;76;25750;-64
2020/12/05 06:26:13;;;;;;;38.08;19.30;;;;;;;5.09;79.89;99264.98;1775307;76;26364;-64
2020/12/05 06:28:44;;;;;;;38.50;18.52;;;;;;;5.07;79.92;99252.23;1804577;76;25718;-66
2020/12/05 06:31:12;;;;;;;36.85;17.60;;;;;;;5.14;79.95;99262.52;1802855;76;27426;-64
2020/12/05 06:33:43;;;;;;;33.70;17.75;;;;;;;5.19;79.94;99257.02;1788632;78;26140;-65
2020/12/05 06:36:35;;;;;;;36.75;17.02;;;;;;;5.25;79.96;99255.84;1795748;76;25858;-65
2020/12/05 06:39:15;;;;;;;34.70;16.65;;;;;;;5.30;79.94;99264.02;1802660;77;26419;-64
2020/12/05 06:41:47;;;;;;;34.78;16.23;;;;;;;5.35;79.98;99259.36;1804849;76;26456;-64
2020/12/05 06:44:22;;;;;;;33.50;16.52;;;;;;;5.43;80.01;99265.20;1818993;76;28468;-63
2020/12/05 06:46:58;;;;;;;33.67;16.02;;;;;;;5.48;80.00;99264.52;1811007;75;25902;-64
2020/12/05 06:49:44;;;;;;;31.30;13.78;;;;;;;5.54;79.99;99272.23;1794926;76;26336;-64
2020/12/05 06:52:29;;;;;;;31.20;14.70;;;;;;;5.63;80.00;99284.70;1801220;76;25933;-67
2020/12/05 06:55:15;;;;;;;30.05;14.35;;;;;;;5.71;79.97;99274.12;1801780;76;25763;-64
2020/12/05 06:57:43;;;;;;;32.88;15.18;;;;;;;5.77;79.96;99259.22;1798362;77;27577;-63
2020/12/05 07:00:18;;;;;;;28.25;13.53;;;;;;;5.85;79.98;99262.39;1805336;76;25765;-64
2020/12/05 07:03:08;;;;;;;31.35;14.68;;;;;;;5.94;79.96;99262.94;1814120;76;25805;-64
2020/12/05 07:05:44;;;;;;;28.50;14.47;;;;;;;5.97;79.88;99268.11;1796828;78;26608;-63
2020/12/05 07:08:37;;;;;;;24.43;13.00;;;;;;;6.02;79.87;99265.62;1801607;76;26096;-63
2020/12/05 07:11:16;;;;;;;24.98;12.98;;;;;;;6.07;79.85;99268.94;1792521;78;28499;-63
2020/12/05 07:13:48;;;;;;;27.82;14.30;;;;;;;6.13;79.81;99271.31;1799528;75;26182;-72
2020/12/05 07:16:28;;;;;;;32.30;15.50;;;;;;;6.16;79.77;99275.16;1800871;76;25774;-72
2020/12/05 07:18:58;;;;;;;31.07;15.03;;;;;;;6.17;79.71;99286.66;1806674;78;25787;-72
2020/12/05 07:21:30;;;;;;;34.60;15.40;;;;;;;6.18;79.65;99283.93;1806937;78;26035;-72
2020/12/05 07:23:58;;;;;;;26.10;14.23;;;;;;;6.20;79.60;99285.19;1806822;78;27801;-72
2020/12/05 07:26:25;;;;;;;27.58;14.43;;;;;;;6.23;79.61;99274.87;1806666;78;26179;-72
2020/12/05 07:28:56;;;;;;;31.20;15.50;;;;;;;6.26;79.58;99288.89;1806676;78;25686;-72
2020/12/05 07:31:24;;;;;;;33.30;15.88;;;;;;;6.28;79.54;99288.81;1806778;78;34768;-72
2020/12/05 07:33:53;;;;;;;28.95;14.13;;;;;;;6.28;79.52;99291.01;1806805;78;25799;-72
2020/12/05 07:36:21;;;;;;;32.40;15.38;;;;;;;6.30;79.54;99309.56;1806814;78;27409;-73
2020/12/05 07:38:50;;;;;;;38.28;14.20;;;;;;;6.33;79.47;99317.40;1806677;78;25712;-73
2020/12/05 07:41:20;;;;;;;29.57;14.75;;;;;;;6.37;79.44;99334.95;1806805;78;25841;-70
2020/12/05 07:43:52;;;;;;;34.55;15.90;;;;;;;6.39;79.40;99345.05;1806552;78;25704;-70
2020/12/05 07:46:20;;;;;;;27.58;15.15;;;;;;;6.42;79.42;99347.11;1806460;78;25627;-71
2020/12/05 07:48:50;;;;;;;33.95;17.75;;;;;;;6.43;79.34;99351.49;1806791;78;25965;-72
2020/12/05 07:51:18;;;;;;;32.53;15.85;;;;;;;6.44;79.31;99365.66;1806601;78;25740;-70
2020/12/05 07:53:47;;;;;;;28.20;13.22;;;;;;;6.44;79.32;99369.66;1806747;78;25692;-71
2020/12/05 07:56:22;;;;;;;27.02;14.03;;;;;;;6.44;79.30;99369.19;1813187;76;26341;-71
2020/12/05 07:58:56;;;;;;;27.93;14.98;;;;;;;6.49;79.27;99376.95;1796065;78;26394;-71
2020/12/05 08:01:52;;;;;;;28.73;15.35;;;;;;;6.52;79.24;99395.45;1803428;76;27952;-70
2020/12/05 08:04:50;;;;;;;32.63;16.40;;;;;;;6.51;79.20;99401.70;1794620;76;26796;-71
2020/12/05 08:07:39;;;;;;;31.12;15.75;;;;;;;6.55;79.24;99405.09;1807887;76;25778;-71
2020/12/05 08:10:14;;;;;;;32.58;16.73;;;;;;;6.53;79.19;99417.14;1808220;76;26225;-70
2020/12/05 08:12:59;;;;;;;28.85;14.87;;;;;;;6.55;79.16;99414.41;1790750;76;25803;-69
2020/12/05 08:15:28;;;;;;;35.92;17.07;;;;;;;6.58;79.15;99419.59;1811126;76;28601;-71
2020/12/05 08:17:58;;;;;;;29.63;16.70;;;;;;;6.62;79.12;99416.71;1807965;77;26007;-69
2020/12/05 08:20:26;;;;;;;33.07;17.30;;;;;;;6.62;79.05;99415.38;1811430;76;25809;-70
2020/12/05 08:22:54;;;;;;;36.70;17.15;;;;;;;6.64;79.06;99421.50;1811443;77;26039;-69
2020/12/05 08:25:22;;;;;;;36.15;17.10;;;;;;;6.66;79.07;99432.94;1812002;76;26048;-71
2020/12/05 08:27:51;;;;;;;30.25;15.00;;;;;;;6.68;79.04;99436.39;1809981;77;28262;-70
2020/12/05 08:30:19;;;;;;;31.40;16.15;;;;;;;6.70;78.98;99431.00;1803535;76;25903;-70
2020/12/05 08:32:51;;;;;;;32.63;16.82;;;;;;;6.71;78.99;99430.06;1825916;76;25764;-70
2020/12/05 08:35:20;;;;;;;33.85;17.15;;;;;;;6.72;78.97;99440.64;1807801;76;25981;-70
2020/12/05 08:37:49;;;;;;;36.63;16.80;;;;;;;6.76;78.97;99449.35;1811169;77;25788;-72
2020/12/05 08:40:19;;;;;;;31.85;16.45;;;;;;;6.77;78.95;99458.60;1807748;76;28245;-75
2020/12/05 08:42:50;;;;;;;35.08;16.82;;;;;;;6.77;78.88;99463.92;1803419;76;26299;-72
2020/12/05 08:45:21;;;;;;;31.55;15.63;;;;;;;6.77;78.89;99459.06;1779018;76;25824;-72
2020/12/05 08:47:51;;;;;;;31.85;13.80;;;;;;;6.79;78.90;99458.06;1815197;77;25896;-72
2020/12/05 08:50:39;;;;;;;32.78;16.65;;;;;;;6.82;78.87;99459.72;1805850;76;25824;-74
2020/12/05 08:53:04;;;;;;;33.50;15.25;;;;;;;6.85;78.88;99467.56;1809410;76;26668;-74
2020/12/05 08:55:32;;;;;;;31.82;16.07;;;;;;;6.88;78.85;99461.23;1803311;76;25784;-71
2020/12/05 08:58:03;;;;;;;30.35;14.60;;;;;;;6.92;78.84;99468.14;1800547;77;25740;-72
2020/12/05 09:00:34;;;;;;;32.45;14.80;;;;;;;6.92;78.83;99463.67;1810348;76;26086;-73
2020/12/05 09:03:03;;;;;;;36.73;14.87;;;;;;;6.96;78.80;99456.41;1800315;77;25848;-72
2020/12/05 09:05:30;;;;;;;34.00;15.35;;;;;;;6.97;78.78;99461.66;1819159;76;28282;-71
2020/12/05 09:08:02;;;;;;;31.82;16.25;;;;;;;7.01;78.79;99463.24;1800024;77;25761;-71
2020/12/05 09:10:30;;;;;;;32.70;16.82;;;;;;;7.05;78.79;99463.95;1818797;76;25798;-74
2020/12/05 09:13:06;;;;;;;32.10;15.30;;;;;;;7.07;78.71;99462.95;1820858;77;26155;-74
2020/12/05 09:15:35;;;;;;;35.43;14.78;;;;;;;7.07;78.72;99462.95;1816466;77;25998;-74
2020/12/05 09:18:03;;;;;;;30.25;13.53;;;;;;;7.09;78.70;99472.20;1803273;76;27397;-75
2020/12/05 09:20:31;;;;;;;32.20;14.78;;;;;;;7.11;78.66;99463.66;1803676;76;26076;-75
2020/12/05 09:23:02;;;;;;;26.73;14.65;;;;;;;7.14;78.66;99466.18;1808791;76;25825;-76
2020/12/05 09:25:38;;;;;;;35.23;14.93;;;;;;;7.17;78.65;99464.70;1805412;76;25869;-75
2020/12/05 09:28:14;;;;;;;31.55;16.00;;;;;;;7.21;78.63;99464.95;1824557;76;25781;-75
2020/12/05 09:30:42;;;;;;;34.35;14.28;;;;;;;7.12;78.60;99438.75;1805590;76;27469;-76
2020/12/05 09:33:15;;;;;;;32.70;14.73;;;;;;;7.26;78.58;99462.06;1793231;76;26309;-75
2020/12/05 09:35:44;;;;;;;31.93;14.58;;;;;;;7.29;78.56;99471.23;1795085;78;25983;-75
2020/12/05 09:38:13;;;;;;;33.58;14.70;;;;;;;7.33;78.54;99468.34;1807188;76;25835;-73
2020/12/05 09:40:41;;;;;;;26.10;13.78;;;;;;;7.37;78.54;99474.39;1808164;76;26175;-74
2020/12/05 09:43:08;;;;;;;37.28;14.73;;;;;;;7.41;78.49;99462.17;1804682;76;27832;-76
2020/12/05 09:45:36;;;;;;;26.90;14.68;;;;;;;7.42;78.45;99454.57;1804386;76;25796;-74
2020/12/05 09:48:04;;;;;;;30.70;14.05;;;;;;;7.46;78.42;99457.48;1804747;78;25737;-74
2020/12/05 09:50:33;;;;;;;33.18;16.62;;;;;;;7.48;78.39;99460.06;1812013;76;25775;-75
2020/12/05 09:53:00;;;;;;;30.40;14.53;;;;;;;7.49;78.35;99458.66;1805518;76;26461;-74
2020/12/05 09:55:28;;;;;;;28.65;14.70;;;;;;;7.53;78.35;99463.38;1802072;76;27751;-74
2020/12/05 09:57:56;;;;;;;27.48;14.68;;;;;;;7.59;78.31;99467.53;1800697;76;25817;-78
2020/12/05 10:00:25;;;;;;;29.95;14.83;;;;;;;7.60;78.26;99460.80;1805275;76;26068;-75
2020/12/05 10:02:53;;;;;;;31.55;15.53;;;;;;;7.65;78.27;99464.09;1805521;76;25783;-71
2020/12/05 10:05:21;;;;;;;33.48;16.10;;;;;;;7.68;78.23;99469.27;1804951;76;26029;-72
2020/12/05 10:07:49;;;;;;;27.90;14.13;;;;;;;7.69;78.17;99467.47;1801858;76;28277;-73
2020/12/05 10:10:17;;;;;;;28.20;14.13;;;;;;;7.73;78.18;99471.70;1802380;76;25807;-71
2020/12/05 10:12:45;;;;;;;29.20;14.73;;;;;;;7.74;78.13;99471.62;1807206;76;25819;-74
2020/12/05 10:15:14;;;;;;;30.50;15.15;;;;;;;7.78;78.07;99472.34;1803901;76;26653;-70
2020/12/05 10:17:44;;;;;;;29.55;14.68;;;;;;;7.81;78.09;99482.82;1795145;76;25970;-74
2020/12/05 10:20:14;;;;;;;31.27;14.75;;;;;;;7.85;78.04;99483.06;1806729;76;27957;-73
2020/12/05 10:22:41;;;;;;;28.92;15.50;;;;;;;7.89;78.03;99481.09;1806712;76;25830;-73
2020/12/05 10:25:09;;;;;;;28.45;15.38;;;;;;;7.90;77.98;99478.83;1806466;76;25918;-74
2020/12/05 10:27:38;;;;;;;31.05;15.88;;;;;;;7.90;77.92;99486.83;1808872;75;26248;-73
2020/12/05 10:30:09;;;;;;;35.40;17.23;;;;;;;7.92;77.92;99503.63;1801996;76;26475;-72
2020/12/05 10:32:37;;;;;;;32.30;15.25;;;;;;;7.93;77.88;99499.55;1784873;77;26379;-73
2020/12/05 10:35:09;;;;;;;35.98;15.58;;;;;;;7.95;77.87;99513.67;1809601;76;25803;-74
2020/12/05 10:37:36;;;;;;;31.33;15.45;;;;;;;7.97;77.84;99521.13;1801601;76;25954;-74
2020/12/05 10:40:04;;;;;;;32.48;14.87;;;;;;;7.99;77.85;99533.92;1800930;77;26567;-71
2020/12/05 10:42:32;;;;;;;37.65;17.10;;;;;;;8.01;77.81;99541.38;1796795;76;25785;-72
2020/12/05 10:45:01;;;;;;;33.20;16.97;;;;;;;8.02;77.79;99545.77;1799064;78;27345;-71
2020/12/05 10:47:29;;;;;;;38.58;17.62;;;;;;;8.03;77.78;99548.83;1805806;76;25767;-73
2020/12/05 10:49:56;;;;;;;29.30;14.63;;;;;;;8.05;77.76;99538.95;1812307;76;25903;-71
2020/12/05 10:52:24;;;;;;;34.53;15.80;;;;;;;8.08;77.71;99549.94;1806577;76;26054;-72
2020/12/05 10:54:54;;;;;;;38.13;17.60;;;;;;;8.08;77.65;99555.27;1804945;78;25777;-73
2020/12/05 10:57:22;;;;;;;36.83;18.27;;;;;;;8.10;77.65;99565.41;1800990;76;27765;-71
2020/12/05 10:59:52;;;;;;;33.75;17.12;;;;;;;8.11;77.67;99564.45;1801798;76;25737;-69
2020/12/05 11:02:19;;;;;;;33.95;17.55;;;;;;;8.14;77.67;99570.51;1801527;76;26356;-72
2020/12/05 11:04:47;;;;;;;31.40;16.95;;;;;;;8.17;77.64;99578.83;1799552;78;25772;-71
2020/12/05 11:07:16;;;;;;;37.38;18.87;;;;;;;8.20;77.57;99572.47;1787987;76;26166;-72
2020/12/05 11:09:46;;;;;;;37.45;17.80;;;;;;;8.20;77.55;99576.48;1809030;76;26199;-72
2020/12/05 11:12:13;;;;;;;31.75;16.00;;;;;;;8.21;77.53;99581.73;1801038;76;25837;-75
2020/12/05 11:14:41;;;;;;;37.95;17.17;;;;;;;8.23;77.48;99591.00;1815269;76;26394;-76
2020/12/05 11:17:09;;;;;;;35.10;17.80;;;;;;;8.27;77.50;99592.58;1801321;76;26091;-77
2020/12/05 11:19:36;;;;;;;34.15;16.77;;;;;;;8.32;77.51;99595.41;1801310;77;25844;-75
2020/12/05 11:22:04;;;;;;;33.35;18.05;;;;;;;8.37;77.50;99593.40;1815046;76;27777;-76
2020/12/05 11:24:32;;;;;;;33.70;17.52;;;;;;;8.42;77.44;99587.35;1818380;76;25784;-76
2020/12/05 11:27:00;;;;;;;37.20;17.00;;;;;;;8.46;77.38;99594.27;1818652;77;25795;-75
2020/12/05 11:29:27;;;;;;;34.78;16.42;;;;;;;8.52;77.35;99597.09;1789432;76;26029;-76
2020/12/05 11:31:56;;;;;;;34.10;15.48;;;;;;;8.56;77.33;99595.98;1808008;77;25784;-77
2020/12/05 11:34:24;;;;;;;33.40;16.23;;;;;;;8.64;77.31;99599.13;1789414;76;26150;-74
2020/12/05 11:36:55;;;;;;;35.83;15.88;;;;;;;8.72;77.23;99602.73;1802169;76;25809;-76
2020/12/05 11:39:23;;;;;;;31.27;16.65;;;;;;;8.79;77.22;99599.66;1796924;76;26230;-75
2020/12/05 11:41:50;;;;;;;27.90;15.00;;;;;;;8.89;77.18;99604.52;1790523;77;25836;-77